CMA CGM Herodote — MFEP — position and weather

sailwx.info

Track history (hours):
 
Tides and Currents Weather Stations Pressure Air Temp Water Temp Dewpoint Dewpoint Depression Visibility Wind Speed Wind Dir Waves Ship Positions

CMA CGM Herodote

Last reported at 2017-Jan-17 16:33 UTC. Time now 2017-Jan-17 17:19 UTC.
Position N 51°20' E 004°18'.

Length 170 m; draft 6.2 m.

Type: Ship. MMSI: 235051085.

Date/timePositionNaut miles runAvg speedWind from/ knotsBaromVisibWave heightAir tempDewpointWater temp
2017-Jan-17 16:33N 51°20' E 004°18'1 0.7
2017-Jan-17 15:34N 51°21' E 004°17'1 1.0
2017-Jan-17 14:33N 51°21' E 004°16'9 9.0
2017-Jan-17 13:33N 51°24' E 004°02'9 9.5
2017-Jan-17 12:33N 51°21' E 003°47'10 9.9
2017-Jan-17 11:33N 51°25' E 003°33'7 7.2
2017-Jan-17 10:33N 51°24' E 003°22'10 9.8
2017-Jan-17 09:33N 51°24' E 003°06'1414.1
2017-Jan-17 08:33N 51°22' E 002°44'8 7.5
2017-Jan-17 07:34N 51°22' E 002°32'6 6.4
2017-Jan-17 06:33N 51°20' E 002°22'10 9.8
2017-Jan-17 05:34N 51°14' E 002°09'1313.1
2017-Jan-17 04:33N 51°09' E 001°50'1414.2
2017-Jan-17 03:34N 50°59' E 001°34'1817.4
2017-Jan-17 02:33N 50°43' E 001°23'2317.4
2017-Jan-17 01:12N 50°29' E 000°53'1918.0
2017-Jan-17 00:07N 50°24' E 000°24'1018.6
2017-Jan-16 23:34N 50°21' E 000°08'1918.5
2017-Jan-16 22:34N 50°16' W 000°20'1918.6
2017-Jan-16 21:33N 50°12' W 000°48'1917.4
2017-Jan-16 20:28N 50°06' W 001°17'1516.3
2017-Jan-16 19:34N 50°03' W 001°39'1514.6
2017-Jan-16 18:33N 49°59' W 002°01'1712.0
2017-Jan-16 17:09N 49°54' W 002°26'711.3
2017-Jan-16 16:33N 49°52' W 002°36'1111.1
2017-Jan-16 15:33N 49°49' W 002°53'1212.1
2017-Jan-16 14:33N 49°49' W 003°11'1312.6
2017-Jan-16 13:34N 49°49' W 003°31'1313.1
2017-Jan-16 12:34N 49°48' W 003°51'1912.9
2017-Jan-16 11:05N 49°49' W 004°21'713.1
2017-Jan-16 10:33N 49°49' W 004°31'1313.5
2017-Jan-16 09:33N 49°48' W 004°52'1414.2
2017-Jan-16 08:32N 49°48' W 005°15'3113.7
2017-Jan-16 06:15N 49°57' W 006°01'1115.2
2017-Jan-16 05:31N 50°09' W 006°01'1415.2
2017-Jan-16 04:33N 50°23' W 006°01'1615.9
2017-Jan-16 03:33N 50°39' W 006°01'1616.5
2017-Jan-16 02:33N 50°55' W 006°01'7615.2
2017-Jan-15 21:32N 52°11' W 005°42'1414.0
2017-Jan-15 20:31N 52°24' W 005°33'8216.2
2017-Jan-15 15:27N 53°34' W 004°20'1517.0
2017-Jan-15 14:33N 53°33' W 003°55'1615.5
2017-Jan-15 13:33N 53°33' W 003°29'1110.7
2017-Jan-15 12:33N 53°32' W 003°11'7 7.1
2017-Jan-15 11:32N 53°27' W 003°01'0 0.4
2017-Jan-15 10:33N 53°27' W 003°01'0 0.2
2017-Jan-15 09:22N 53°28' W 003°01'0 0.0
2017-Jan-15 08:31N 53°28' W 003°01'0 0.0
2017-Jan-15 07:31N 53°28' W 003°01'0 0.0
2017-Jan-15 06:28N 53°28' W 003°01'0 0.0
2017-Jan-15 05:25N 53°28' W 003°01'0 0.0
2017-Jan-15 04:31N 53°28' W 003°01'0 0.0
2017-Jan-15 03:31N 53°28' W 003°01'0 0.0
2017-Jan-15 02:31N 53°28' W 003°01'0 0.0
2017-Jan-15 01:31N 53°28' W 003°01'0 0.0
2017-Jan-15 00:31N 53°28' W 003°01'0 0.0
2017-Jan-14 23:31N 53°28' W 003°01'0 0.0
2017-Jan-14 22:31N 53°28' W 003°01'0 0.0
2017-Jan-14 21:31N 53°28' W 003°01'0 0.0
2017-Jan-14 20:31N 53°28' W 003°01'0 0.0
2017-Jan-14 19:31N 53°28' W 003°01'0 0.0
2017-Jan-14 18:31N 53°28' W 003°01'0 0.0
2017-Jan-14 17:31N 53°28' W 003°01'0 0.0
2017-Jan-14 16:31N 53°28' W 003°01'0 0.0
2017-Jan-14 15:31N 53°28' W 003°01'0 0.0
2017-Jan-14 14:31N 53°28' W 003°01'0 0.0
2017-Jan-14 13:28N 53°28' W 003°01'0 0.0
2017-Jan-14 12:31N 53°28' W 003°01'0 0.0
2017-Jan-14 11:28N 53°28' W 003°01'0 0.0
2017-Jan-14 10:31N 53°28' W 003°01'0 0.0
2017-Jan-14 09:31N 53°28' W 003°01'0 0.0
2017-Jan-14 08:31N 53°28' W 003°01'0 0.0
2017-Jan-14 07:22N 53°28' W 003°01'0 0.0
2017-Jan-14 06:31N 53°28' W 003°01'0 0.0
2017-Jan-14 05:31N 53°28' W 003°01'0 0.0
2017-Jan-14 04:28N 53°28' W 003°01'0 0.0
2017-Jan-14 03:31N 53°28' W 003°01'0 0.0
2017-Jan-13 23:31N 53°28' W 003°01'0 0.0
2017-Jan-13 22:31N 53°28' W 003°01'0 0.0
2017-Jan-13 21:31N 53°28' W 003°01'0 0.0
2017-Jan-13 20:31N 53°28' W 003°01'0 0.0
2017-Jan-13 19:31N 53°28' W 003°01'0 0.0
2017-Jan-13 18:31N 53°28' W 003°01'0 0.0
2017-Jan-13 17:31N 53°28' W 003°01'0 0.0
2017-Jan-13 16:31N 53°28' W 003°01'0 0.0
2017-Jan-13 15:31N 53°28' W 003°01'0 0.0
2017-Jan-13 14:31N 53°28' W 003°01'0 0.0
2017-Jan-13 13:31N 53°28' W 003°01'0 0.0
2017-Jan-13 12:28N 53°28' W 003°01'0 0.0
2017-Jan-13 11:31N 53°28' W 003°01'0 0.0
2017-Jan-13 10:31N 53°28' W 003°01'0 0.0
2017-Jan-13 09:28N 53°28' W 003°01'0 0.0
2017-Jan-13 08:31N 53°28' W 003°01'0 0.0
2017-Jan-13 07:31N 53°28' W 003°01'0 0.0
2017-Jan-13 06:31N 53°28' W 003°01'0 0.0
2017-Jan-13 05:31N 53°28' W 003°01'0 0.0
2017-Jan-13 04:31N 53°28' W 003°01'0 0.0
2017-Jan-13 03:31N 53°28' W 003°01'0 0.0
2017-Jan-13 02:31N 53°28' W 003°01'0 0.0
2017-Jan-13 01:33N 53°28' W 003°01'0 0.3
2017-Jan-13 00:31N 53°27' W 003°01'0 0.0
2017-Jan-12 23:31N 53°27' W 003°01'0 0.0
2017-Jan-12 22:31N 53°27' W 003°01'0 0.0
2017-Jan-12 21:28N 53°27' W 003°01'0 0.5
2017-Jan-12 20:33N 53°27' W 003°01'0 0.3
2017-Jan-12 19:33N 53°27' W 003°01'8 7.8
2017-Jan-12 18:33N 53°31' W 003°12'9 9.0
2017-Jan-12 17:33N 53°31' W 003°27'6 6.3
2017-Jan-12 16:33N 53°30' W 003°37'6 5.7
2017-Jan-12 15:33N 53°30' W 003°47'5 5.1
2017-Jan-12 14:33N 53°30' W 003°56'5 4.9
2017-Jan-12 13:32N 53°30' W 004°04'5 4.8
2017-Jan-12 12:33N 53°28' W 004°11'2 0.3
2017-Jan-12 07:33N 53°26' W 004°12'8914.0
2017-Jan-12 01:11N 52°12' W 005°33'1312.8
2017-Jan-12 00:12N 52°00' W 005°40'6913.7
2017-Jan-11 19:09N 50°52' W 005°53'913.5
2017-Jan-11 18:30N 50°43' W 005°55'1112.1
2017-Jan-11 17:33N 50°31' W 005°54'9 9.2
2017-Jan-11 16:34N 50°22' W 005°53'9 8.7
2017-Jan-11 15:33N 50°14' W 005°52'9 9.1
2017-Jan-11 14:33N 50°04' W 005°51'45 8.9
2017-Jan-11 09:33N 49°54' W 004°44'1010.1
2017-Jan-11 08:33N 49°55' W 004°28'10 9.8
2017-Jan-11 07:33N 49°56' W 004°13'10 9.9
2017-Jan-11 06:34N 49°58' W 003°58'8 8.3
2017-Jan-11 05:34N 49°57' W 003°45'8 8.4
2017-Jan-11 04:33N 49°57' W 003°32'11 8.8
2017-Jan-11 03:16N 49°58' W 003°14'810.0
2017-Jan-11 02:30N 49°59' W 003°02'3913.3
2017-Jan-10 23:33N 50°08' W 002°03'1413.8
2017-Jan-10 22:34N 50°12' W 001°43'1212.2
2017-Jan-10 21:34N 50°15' W 001°24'1010.4
2017-Jan-10 20:33N 50°18' W 001°09'30 8.9
2017-Jan-10 17:11N 50°26' W 000°23'810.5
2017-Jan-10 16:25N 50°28' W 000°11'1011.5
2017-Jan-10 15:33N 50°31' E 000°04'1312.5
2017-Jan-10 14:33N 50°34' E 000°23'1111.0
2017-Jan-10 13:31N 50°39' E 000°39'27 8.7
2017-Jan-10 10:25N 50°56' E 001°12'1012.2
2017-Jan-10 09:33N 51°03' E 001°25'1716.7
2017-Jan-10 08:33N 51°13' E 001°45'1918.9
2017-Jan-10 07:33N 51°28' E 002°04'2020.1
2017-Jan-10 06:33N 51°44' E 002°25'4018.3
2017-Jan-10 04:22N 52°02' E 003°23'1417.9
2017-Jan-10 03:33N 52°03' E 003°46'6 6.0
2017-Jan-10 02:34N 52°02' E 003°55'1010.2
2017-Jan-10 01:34N 51°57' E 004°10'9 9.0
2017-Jan-10 00:34N 51°54' E 004°24'1 1.3
2017-Jan-09 23:31N 51°53' E 004°26'0 0.0
2017-Jan-09 22:31N 51°53' E 004°26'0 0.0
2017-Jan-09 21:31N 51°53' E 004°26'0 0.0
2017-Jan-09 20:31N 51°53' E 004°26'0 0.0
2017-Jan-09 19:31N 51°53' E 004°26'0 0.0
2017-Jan-09 18:31N 51°53' E 004°26'0 0.0
2017-Jan-09 17:31N 51°53' E 004°26'0 0.0
2017-Jan-09 16:31N 51°53' E 004°26'0 0.0
2017-Jan-09 15:31N 51°53' E 004°26'0 0.0
2017-Jan-09 14:31N 51°53' E 004°26'0 0.0
2017-Jan-09 13:31N 51°53' E 004°26'0 0.0
2017-Jan-09 12:31N 51°53' E 004°26'0 0.0
2017-Jan-09 11:31N 51°53' E 004°26'0 0.0
2017-Jan-09 10:31N 51°53' E 004°26'0 0.0
2017-Jan-09 09:31N 51°53' E 004°26'0 0.0
2017-Jan-09 08:31N 51°53' E 004°26'0 0.0
2017-Jan-09 07:31N 51°53' E 004°26'0 0.0
2017-Jan-09 06:31N 51°53' E 004°26'0 0.0
2017-Jan-09 05:31N 51°53' E 004°26'0 0.0
2017-Jan-09 04:31N 51°53' E 004°26'0 0.0
2017-Jan-09 03:31N 51°53' E 004°26'0 0.0
2017-Jan-09 02:31N 51°53' E 004°26'0 0.0
2017-Jan-09 01:31N 51°53' E 004°26'0 0.0
2017-Jan-09 00:31N 51°53' E 004°26'1 0.9
2017-Jan-08 23:33N 51°54' E 004°25'9 8.7
2017-Jan-08 22:33N 51°57' E 004°11'1413.8
2017-Jan-08 21:33N 52°00' E 003°50'5914.8
2017-Jan-08 17:33N 51°38' E 002°21'1616.4
2017-Jan-08 16:34N 51°34' E 001°55'1615.9
2017-Jan-08 15:34N 51°28' E 001°32'1312.9
2017-Jan-08 14:33N 51°29' E 001°11'1413.5
2017-Jan-08 13:33N 51°29' E 000°50'1414.3
2017-Jan-08 12:34N 51°28' E 000°27'4 4.3
2017-Jan-08 11:34N 51°27' E 000°20'0 0.0
2017-Jan-08 10:34N 51°27' E 000°20'0 0.0
2017-Jan-08 09:34N 51°27' E 000°20'0 0.0
2017-Jan-08 08:34N 51°27' E 000°20'0 0.0
2017-Jan-08 07:34N 51°27' E 000°20'0 0.0
2017-Jan-08 06:34N 51°27' E 000°20'0 0.0
2017-Jan-08 05:34N 51°27' E 000°20'0 0.0
2017-Jan-08 04:34N 51°27' E 000°20'0 0.0
2017-Jan-08 03:34N 51°27' E 000°20'0 0.0
2017-Jan-08 02:34N 51°27' E 000°20'0 0.0
2017-Jan-08 01:34N 51°27' E 000°20'0 0.0
2017-Jan-08 00:34N 51°27' E 000°20'0 0.0
2017-Jan-07 23:34N 51°27' E 000°20'0 0.0
2017-Jan-07 22:34N 51°27' E 000°20'0 0.0
2017-Jan-07 21:34N 51°27' E 000°20'0 0.0
2017-Jan-07 20:34N 51°27' E 000°20'0 0.0
2017-Jan-07 19:34N 51°27' E 000°20'0 0.0
2017-Jan-07 18:34N 51°27' E 000°20'0 0.0
2017-Jan-07 17:34N 51°27' E 000°20'  
Track history (hours):
 
Tides and Currents Weather Stations Pressure Air Temp Water Temp Dewpoint Dewpoint Depression Visibility Wind Speed Wind Dir Waves Ship Positions

CMA CGM Herodote

Last reported at 2017-Jan-17 16:33 UTC. Time now 2017-Jan-17 17:19 UTC.
Position N 51°20' E 004°18'.

Length 170 m; draft 6.2 m.

Type: Ship. MMSI: 235051085.

Date/timePositionNaut miles runAvg speedWind from/ knotsBaromVisibWave heightAir tempDewpointWater temp
2017-Jan-17 16:33N 51°20' E 004°18'1 0.7
2017-Jan-17 15:34N 51°21' E 004°17'1 1.0
2017-Jan-17 14:33N 51°21' E 004°16'9 9.0
2017-Jan-17 13:33N 51°24' E 004°02'9 9.5
2017-Jan-17 12:33N 51°21' E 003°47'10 9.9
2017-Jan-17 11:33N 51°25' E 003°33'7 7.2
2017-Jan-17 10:33N 51°24' E 003°22'10 9.8
2017-Jan-17 09:33N 51°24' E 003°06'1414.1
2017-Jan-17 08:33N 51°22' E 002°44'8 7.5
2017-Jan-17 07:34N 51°22' E 002°32'6 6.4
2017-Jan-17 06:33N 51°20' E 002°22'10 9.8
2017-Jan-17 05:34N 51°14' E 002°09'1313.1
2017-Jan-17 04:33N 51°09' E 001°50'1414.2
2017-Jan-17 03:34N 50°59' E 001°34'1817.4
2017-Jan-17 02:33N 50°43' E 001°23'2317.4
2017-Jan-17 01:12N 50°29' E 000°53'1918.0
2017-Jan-17 00:07N 50°24' E 000°24'1018.6
2017-Jan-16 23:34N 50°21' E 000°08'1918.5
2017-Jan-16 22:34N 50°16' W 000°20'1918.6
2017-Jan-16 21:33N 50°12' W 000°48'1917.4
2017-Jan-16 20:28N 50°06' W 001°17'1516.3
2017-Jan-16 19:34N 50°03' W 001°39'1514.6
2017-Jan-16 18:33N 49°59' W 002°01'1712.0
2017-Jan-16 17:09N 49°54' W 002°26'711.3
2017-Jan-16 16:33N 49°52' W 002°36'1111.1
2017-Jan-16 15:33N 49°49' W 002°53'1212.1
2017-Jan-16 14:33N 49°49' W 003°11'1312.6
2017-Jan-16 13:34N 49°49' W 003°31'1313.1
2017-Jan-16 12:34N 49°48' W 003°51'1912.9
2017-Jan-16 11:05N 49°49' W 004°21'713.1
2017-Jan-16 10:33N 49°49' W 004°31'1313.5
2017-Jan-16 09:33N 49°48' W 004°52'1414.2
2017-Jan-16 08:32N 49°48' W 005°15'3113.7
2017-Jan-16 06:15N 49°57' W 006°01'1115.2
2017-Jan-16 05:31N 50°09' W 006°01'1415.2
2017-Jan-16 04:33N 50°23' W 006°01'1615.9
2017-Jan-16 03:33N 50°39' W 006°01'1616.5
2017-Jan-16 02:33N 50°55' W 006°01'7615.2
2017-Jan-15 21:32N 52°11' W 005°42'1414.0
2017-Jan-15 20:31N 52°24' W 005°33'8216.2
2017-Jan-15 15:27N 53°34' W 004°20'1517.0
2017-Jan-15 14:33N 53°33' W 003°55'1615.5
2017-Jan-15 13:33N 53°33' W 003°29'1110.7
2017-Jan-15 12:33N 53°32' W 003°11'7 7.1
2017-Jan-15 11:32N 53°27' W 003°01'0 0.4
2017-Jan-15 10:33N 53°27' W 003°01'0 0.2
2017-Jan-15 09:22N 53°28' W 003°01'0 0.0
2017-Jan-15 08:31N 53°28' W 003°01'0 0.0
2017-Jan-15 07:31N 53°28' W 003°01'0 0.0
2017-Jan-15 06:28N 53°28' W 003°01'0 0.0
2017-Jan-15 05:25N 53°28' W 003°01'0 0.0
2017-Jan-15 04:31N 53°28' W 003°01'0 0.0
2017-Jan-15 03:31N 53°28' W 003°01'0 0.0
2017-Jan-15 02:31N 53°28' W 003°01'0 0.0
2017-Jan-15 01:31N 53°28' W 003°01'0 0.0
2017-Jan-15 00:31N 53°28' W 003°01'0 0.0
2017-Jan-14 23:31N 53°28' W 003°01'0 0.0
2017-Jan-14 22:31N 53°28' W 003°01'0 0.0
2017-Jan-14 21:31N 53°28' W 003°01'0 0.0
2017-Jan-14 20:31N 53°28' W 003°01'0 0.0
2017-Jan-14 19:31N 53°28' W 003°01'0 0.0
2017-Jan-14 18:31N 53°28' W 003°01'0 0.0
2017-Jan-14 17:31N 53°28' W 003°01'0 0.0
2017-Jan-14 16:31N 53°28' W 003°01'0 0.0
2017-Jan-14 15:31N 53°28' W 003°01'0 0.0
2017-Jan-14 14:31N 53°28' W 003°01'0 0.0
2017-Jan-14 13:28N 53°28' W 003°01'0 0.0
2017-Jan-14 12:31N 53°28' W 003°01'0 0.0
2017-Jan-14 11:28N 53°28' W 003°01'0 0.0
2017-Jan-14 10:31N 53°28' W 003°01'0 0.0
2017-Jan-14 09:31N 53°28' W 003°01'0 0.0
2017-Jan-14 08:31N 53°28' W 003°01'0 0.0
2017-Jan-14 07:22N 53°28' W 003°01'0 0.0
2017-Jan-14 06:31N 53°28' W 003°01'0 0.0
2017-Jan-14 05:31N 53°28' W 003°01'0 0.0
2017-Jan-14 04:28N 53°28' W 003°01'0 0.0
2017-Jan-14 03:31N 53°28' W 003°01'0 0.0
2017-Jan-13 23:31N 53°28' W 003°01'0 0.0
2017-Jan-13 22:31N 53°28' W 003°01'0 0.0
2017-Jan-13 21:31N 53°28' W 003°01'0 0.0
2017-Jan-13 20:31N 53°28' W 003°01'0 0.0
2017-Jan-13 19:31N 53°28' W 003°01'0 0.0
2017-Jan-13 18:31N 53°28' W 003°01'0 0.0
2017-Jan-13 17:31N 53°28' W 003°01'0 0.0
2017-Jan-13 16:31N 53°28' W 003°01'0 0.0
2017-Jan-13 15:31N 53°28' W 003°01'0 0.0
2017-Jan-13 14:31N 53°28' W 003°01'0 0.0
2017-Jan-13 13:31N 53°28' W 003°01'0 0.0
2017-Jan-13 12:28N 53°28' W 003°01'0 0.0
2017-Jan-13 11:31N 53°28' W 003°01'0 0.0
2017-Jan-13 10:31N 53°28' W 003°01'0 0.0
2017-Jan-13 09:28N 53°28' W 003°01'0 0.0
2017-Jan-13 08:31N 53°28' W 003°01'0 0.0
2017-Jan-13 07:31N 53°28' W 003°01'0 0.0
2017-Jan-13 06:31N 53°28' W 003°01'0 0.0
2017-Jan-13 05:31N 53°28' W 003°01'0 0.0
2017-Jan-13 04:31N 53°28' W 003°01'0 0.0
2017-Jan-13 03:31N 53°28' W 003°01'0 0.0
2017-Jan-13 02:31N 53°28' W 003°01'0 0.0
2017-Jan-13 01:33N 53°28' W 003°01'0 0.3
2017-Jan-13 00:31N 53°27' W 003°01'0 0.0
2017-Jan-12 23:31N 53°27' W 003°01'0 0.0
2017-Jan-12 22:31N 53°27' W 003°01'0 0.0
2017-Jan-12 21:28N 53°27' W 003°01'0 0.5
2017-Jan-12 20:33N 53°27' W 003°01'0 0.3
2017-Jan-12 19:33N 53°27' W 003°01'8 7.8
2017-Jan-12 18:33N 53°31' W 003°12'9 9.0
2017-Jan-12 17:33N 53°31' W 003°27'6 6.3
2017-Jan-12 16:33N 53°30' W 003°37'6 5.7
2017-Jan-12 15:33N 53°30' W 003°47'5 5.1
2017-Jan-12 14:33N 53°30' W 003°56'5 4.9
2017-Jan-12 13:32N 53°30' W 004°04'5 4.8
2017-Jan-12 12:33N 53°28' W 004°11'2 0.3
2017-Jan-12 07:33N 53°26' W 004°12'8914.0
2017-Jan-12 01:11N 52°12' W 005°33'1312.8
2017-Jan-12 00:12N 52°00' W 005°40'6913.7
2017-Jan-11 19:09N 50°52' W 005°53'913.5
2017-Jan-11 18:30N 50°43' W 005°55'1112.1
2017-Jan-11 17:33N 50°31' W 005°54'9 9.2
2017-Jan-11 16:34N 50°22' W 005°53'9 8.7
2017-Jan-11 15:33N 50°14' W 005°52'9 9.1
2017-Jan-11 14:33N 50°04' W 005°51'45 8.9
2017-Jan-11 09:33N 49°54' W 004°44'1010.1
2017-Jan-11 08:33N 49°55' W 004°28'10 9.8
2017-Jan-11 07:33N 49°56' W 004°13'10 9.9
2017-Jan-11 06:34N 49°58' W 003°58'8 8.3
2017-Jan-11 05:34N 49°57' W 003°45'8 8.4
2017-Jan-11 04:33N 49°57' W 003°32'11 8.8
2017-Jan-11 03:16N 49°58' W 003°14'810.0
2017-Jan-11 02:30N 49°59' W 003°02'3913.3
2017-Jan-10 23:33N 50°08' W 002°03'1413.8
2017-Jan-10 22:34N 50°12' W 001°43'1212.2
2017-Jan-10 21:34N 50°15' W 001°24'1010.4
2017-Jan-10 20:33N 50°18' W 001°09'30 8.9
2017-Jan-10 17:11N 50°26' W 000°23'810.5
2017-Jan-10 16:25N 50°28' W 000°11'1011.5
2017-Jan-10 15:33N 50°31' E 000°04'1312.5
2017-Jan-10 14:33N 50°34' E 000°23'1111.0
2017-Jan-10 13:31N 50°39' E 000°39'27 8.7
2017-Jan-10 10:25N 50°56' E 001°12'1012.2
2017-Jan-10 09:33N 51°03' E 001°25'1716.7
2017-Jan-10 08:33N 51°13' E 001°45'1918.9
2017-Jan-10 07:33N 51°28' E 002°04'2020.1
2017-Jan-10 06:33N 51°44' E 002°25'4018.3
2017-Jan-10 04:22N 52°02' E 003°23'1417.9
2017-Jan-10 03:33N 52°03' E 003°46'6 6.0
2017-Jan-10 02:34N 52°02' E 003°55'1010.2
2017-Jan-10 01:34N 51°57' E 004°10'9 9.0
2017-Jan-10 00:34N 51°54' E 004°24'1 1.3
2017-Jan-09 23:31N 51°53' E 004°26'0 0.0
2017-Jan-09 22:31N 51°53' E 004°26'0 0.0
2017-Jan-09 21:31N 51°53' E 004°26'0 0.0
2017-Jan-09 20:31N 51°53' E 004°26'0 0.0
2017-Jan-09 19:31N 51°53' E 004°26'0 0.0
2017-Jan-09 18:31N 51°53' E 004°26'0 0.0
2017-Jan-09 17:31N 51°53' E 004°26'0 0.0
2017-Jan-09 16:31N 51°53' E 004°26'0 0.0
2017-Jan-09 15:31N 51°53' E 004°26'0 0.0
2017-Jan-09 14:31N 51°53' E 004°26'0 0.0
2017-Jan-09 13:31N 51°53' E 004°26'0 0.0
2017-Jan-09 12:31N 51°53' E 004°26'0 0.0
2017-Jan-09 11:31N 51°53' E 004°26'0 0.0
2017-Jan-09 10:31N 51°53' E 004°26'0 0.0
2017-Jan-09 09:31N 51°53' E 004°26'0 0.0
2017-Jan-09 08:31N 51°53' E 004°26'0 0.0
2017-Jan-09 07:31N 51°53' E 004°26'0 0.0
2017-Jan-09 06:31N 51°53' E 004°26'0 0.0
2017-Jan-09 05:31N 51°53' E 004°26'0 0.0
2017-Jan-09 04:31N 51°53' E 004°26'0 0.0
2017-Jan-09 03:31N 51°53' E 004°26'0 0.0
2017-Jan-09 02:31N 51°53' E 004°26'0 0.0
2017-Jan-09 01:31N 51°53' E 004°26'0 0.0
2017-Jan-09 00:31N 51°53' E 004°26'1 0.9
2017-Jan-08 23:33N 51°54' E 004°25'9 8.7
2017-Jan-08 22:33N 51°57' E 004°11'1413.8
2017-Jan-08 21:33N 52°00' E 003°50'5914.8
2017-Jan-08 17:33N 51°38' E 002°21'1616.4
2017-Jan-08 16:34N 51°34' E 001°55'1615.9
2017-Jan-08 15:34N 51°28' E 001°32'1312.9
2017-Jan-08 14:33N 51°29' E 001°11'1413.5
2017-Jan-08 13:33N 51°29' E 000°50'1414.3
2017-Jan-08 12:34N 51°28' E 000°27'4 4.3
2017-Jan-08 11:34N 51°27' E 000°20'0 0.0
2017-Jan-08 10:34N 51°27' E 000°20'0 0.0
2017-Jan-08 09:34N 51°27' E 000°20'0 0.0
2017-Jan-08 08:34N 51°27' E 000°20'0 0.0
2017-Jan-08 07:34N 51°27' E 000°20'0 0.0
2017-Jan-08 06:34N 51°27' E 000°20'0 0.0
2017-Jan-08 05:34N 51°27' E 000°20'0 0.0
2017-Jan-08 04:34N 51°27' E 000°20'0 0.0
2017-Jan-08 03:34N 51°27' E 000°20'0 0.0
2017-Jan-08 02:34N 51°27' E 000°20'0 0.0
2017-Jan-08 01:34N 51°27' E 000°20'0 0.0
2017-Jan-08 00:34N 51°27' E 000°20'0 0.0
2017-Jan-07 23:34N 51°27' E 000°20'0 0.0
2017-Jan-07 22:34N 51°27' E 000°20'0 0.0
2017-Jan-07 21:34N 51°27' E 000°20'0 0.0
2017-Jan-07 20:34N 51°27' E 000°20'0 0.0
2017-Jan-07 19:34N 51°27' E 000°20'0 0.0
2017-Jan-07 18:34N 51°27' E 000°20'0 0.0
2017-Jan-07 17:34N 51°27' E 000°20'  

Dump ship's entire track history